Aviation Digital Data Service (ADDS)

Output produced by METARs form (1221 UTC 17 September 2019)
found at http://www.aviationweather.gov/metar/data/
 
VTSM 171200Z 31007KT 9999 -RA FEW018 SCT100 27/23 Q1009 NOSIG
VTSM 171130Z 27007KT 240V300 9999 FEW018 SCT100 27/23 Q1009 NOSIG
VTSM 171100Z 29005KT 9999 FEW018 27/23 Q1009 NOSIG
VTSM 171030Z 30007KT 270V360 9999 FEW020 27/23 Q1009 NOSIG
VTSM 171000Z 27006KT 9999 FEW020 SCT100 28/23 Q1009 NOSIG
VTSM 170930Z 29007KT 9999 FEW020 SCT100 28/23 Q1009 NOSIG
VTSM 170900Z 29004KT 9999 FEW018 SCT100 28/24 Q1009 NOSIG
VTSM 170830Z 28005KT 9999 FEW018 SCT100 28/23 Q1009 NOSIG
VTSM 170800Z 29007KT 9999 FEW018 28/24 Q1009 NOSIG
VTSM 170730Z 33004KT 9999 FEW018 27/24 Q1009 NOSIG
VTSM 170700Z 28005KT 250V310 9999 -RA FEW015 27/25 Q1009 NOSIG
VTSM 170630Z 29003KT 8000 -RA FEW015 SCT100 26/25 Q1010 NOSIG
VTSM 170600Z VRB02KT 8000 -RA SCT016 25/24 Q1010 RERA NOSIG
VTSM 170530Z 30008KT 270V330 5000 RA FEW016 SCT018CB BKN100 25/24 Q1011 RERA BECMG TL0545 6000 -RA
VTSM 170500Z 30014KT 4000 RA FEW016 FEW018CB BKN100 25/24 Q1011 RERA BECMG TL0530 6000 -RA
VTSM 170430Z 31010KT 6000 1500N -RA FEW018 FEW020TCU SCT100 28/24 Q1011 TEMPO TL0500 1000 +RA
VTSM 170400Z 31008KT 280V340 8000 -RA FEW018 SCT100 28/24 Q1011 NOSIG
VTSM 170330Z 30008KT 270V330 9000 -RA FEW018 SCT020 27/25 Q1012 NOSIG
VTSM 170300Z 33008KT 300V360 7000 2000N -RA FEW016 FEW018TCU SCT020 28/25 Q1012 TEMPO TL0330 3000 RA
VTSM 170230Z 35005KT 8000 VCSH FEW018 FEW020TCU SCT100 28/25 Q1012 NOSIG
VTSM 170200Z VRB02KT 9000 VCSH FEW018 FEW020TCU SCT100 28/25 Q1011 NOSIG
VTSM 170130Z 00000KT 9000 -RA FEW018 SCT100 27/24 Q1011 NOSIG
VTSM 170100Z VRB02KT 7000 -RA FEW018 SCT100 28/23 Q1011 TEMPO TL0130 5000 RA
VTSM 170030Z VRB02KT 9999 FEW020 SCT100 27/24 Q1010 NOSIG
VTSM 170000Z 31004KT 9999 FEW020TCU SCT100 27/24 Q1010 NOSIG
VTSM 162330Z 31003KT 9999 FEW020 SCT100 27/23 Q1009 NOSIG
VTSM 162300Z VRB02KT 9999 FEW020 SCT100 27/23 Q1009 NOSIG
VTSM 162230Z 26004KT 9999 FEW020 SCT100 27/25 Q1009 NOSIG
VTSM 162200Z 28007KT 9999 FEW020 SCT100 27/23 Q1009 NOSIG
VTSM 161500Z 00000KT 9999 FEW020 27/24 Q1010 NOSIG
VTSM 161430Z 00000KT 9999 FEW020 27/24 Q1009 NOSIG
VTSM 161400Z 00000KT 9999 FEW020 27/24 Q1009 NOSIG
VTSM 161330Z 00000KT 9999 FEW020 27/24 Q1009 NOSIG
VTSM 161300Z 00000KT 9999 FEW020 27/24 Q1008 NOSIG
VTSM 161230Z VRB02KT 9999 FEW020 27/24 Q1008 NOSIG
TAF VTSM 171100Z 1712/1812 29006KT 9999 FEW020 BKN100 
     TEMPO 1712/1718 5000 RA SCT015 BKN100 
     TEMPO 1806/1812 29010G20KT 5000 TSRA FEW016CB SCT018 BKN100